Terminal Aerodrome Forecast
Issued by NWS

Home | Current Version | Previous Version | Text Only | Print | Product List | Glossary Off
Versions: 1 2 3 4 5 6 7 8 9 10 11 12 13

000
FTUS42 KMHX 182351
TAFPGV
TAF
KPGV 182351Z 1900/1924 23010KT P6SM SKC
     FM190200 22010KT P6SM FEW250 WS020/25045KT
     FM190900 22010KT P6SM FEW250
     FM191400 27014G23KT P6SM BKN050
     FM191900 29018G28KT P6SM SCT050
      AMD LTD TO CLD VIS AND WIND=

USA.gov is the U.S. government's official web portal to all federal, state and local government web resources and services.